createdAt,value
2023-03-23T15:58:40.060Z,3.60
2023-03-23T16:01:19.523Z,3.90
2023-03-23T16:03:55.788Z,4.13
2023-03-23T16:06:25.669Z,3.20
2023-03-23T16:08:54.692Z,2.20
2023-03-23T16:11:22.476Z,2.30
2023-03-23T16:13:49.020Z,3.00
2023-03-23T16:16:22.325Z,1.97
2023-03-23T16:18:49.216Z,2.33
2023-03-23T16:21:16.823Z,2.63
2023-03-23T16:23:46.490Z,2.50
2023-03-23T16:26:14.603Z,2.27
2023-03-23T16:28:42.269Z,2.43
2023-03-23T16:31:09.155Z,2.20
2023-03-23T16:33:35.905Z,2.57
2023-03-23T16:36:02.978Z,2.70
2023-03-23T16:38:29.598Z,2.97
2023-03-23T16:40:56.240Z,2.53
2023-03-23T16:43:22.931Z,3.00
2023-03-23T16:45:49.883Z,3.37
2023-03-23T16:48:16.958Z,3.80
2023-03-23T16:50:44.451Z,3.30
2023-03-23T16:53:14.151Z,3.20
2023-03-23T16:55:41.019Z,3.57
2023-03-23T17:00:40.643Z,3.83
2023-03-23T17:03:07.408Z,3.30
2023-03-23T17:05:36.003Z,3.47
2023-03-23T17:08:02.513Z,4.13
2023-03-23T17:10:30.244Z,3.40
2023-03-23T17:12:56.748Z,3.87
2023-03-23T17:15:26.136Z,4.13
2023-03-23T17:17:54.741Z,6.40
2023-03-23T17:20:22.043Z,10.03
2023-03-23T17:22:48.854Z,7.20
2023-03-23T17:25:15.385Z,5.03
2023-03-23T17:27:42.698Z,6.30
2023-03-23T17:30:10.773Z,7.07
2023-03-23T17:32:38.333Z,5.73
2023-03-23T17:35:06.564Z,6.40
2023-03-23T17:37:33.496Z,5.27
2023-03-23T17:40:00.358Z,5.30
2023-03-23T17:42:28.010Z,5.77
2023-03-23T17:44:54.521Z,4.70
2023-03-23T17:47:21.034Z,4.03
2023-03-23T17:49:47.933Z,4.40
2023-03-23T17:52:14.525Z,4.10
2023-03-23T17:54:41.198Z,4.00
2023-03-23T17:57:07.787Z,3.77
2023-03-23T17:59:34.435Z,3.83
2023-03-23T18:02:00.956Z,2.97
2023-03-23T18:04:27.701Z,3.63
2023-03-23T18:06:56.379Z,3.07
2023-03-23T18:09:23.936Z,2.83
2023-03-23T18:11:50.520Z,3.10
2023-03-23T18:14:17.280Z,3.50
2023-03-23T18:16:43.960Z,3.17
2023-03-23T18:19:10.747Z,2.43
2023-03-23T18:21:39.067Z,3.00
2023-03-23T18:24:06.182Z,2.87
2023-03-23T18:26:32.845Z,2.97
2023-03-23T18:28:59.576Z,2.90
2023-03-23T18:31:26.290Z,3.13
2023-03-23T18:33:54.922Z,2.50
2023-03-23T18:36:23.837Z,2.67
2023-03-23T18:38:51.019Z,2.80
2023-03-23T18:41:18.515Z,2.93
2023-03-23T18:43:46.089Z,2.60
2023-03-23T18:46:13.840Z,3.33
2023-03-23T18:48:40.614Z,3.00
2023-03-23T18:51:08.843Z,2.53
2023-03-23T18:53:35.639Z,2.47
2023-03-23T18:56:15.774Z,2.60
2023-03-23T18:58:43.506Z,2.50
2023-03-23T19:01:13.573Z,2.50
2023-03-23T19:03:40.943Z,3.50
2023-03-23T19:06:15.461Z,3.20
2023-03-23T19:08:42.390Z,2.50
2023-03-23T19:11:12.647Z,3.10
2023-03-23T19:13:44.412Z,2.30
2023-03-23T19:16:17.404Z,2.67
2023-03-23T19:18:44.072Z,2.70
2023-03-23T19:21:15.947Z,2.77
2023-03-23T19:23:44.640Z,2.50
2023-03-23T19:26:28.657Z,2.73
2023-03-23T19:31:25.982Z,2.03
2023-03-23T19:33:53.274Z,2.97
2023-03-23T19:36:21.377Z,2.90
2023-03-23T19:38:48.346Z,3.00
2023-03-23T19:41:15.925Z,2.50
2023-03-23T19:43:47.265Z,2.60
2023-03-23T19:46:14.617Z,3.27
2023-03-23T19:48:41.416Z,2.47
2023-03-23T19:51:15.936Z,2.07
2023-03-23T19:53:42.618Z,2.27
2023-03-23T19:56:14.322Z,2.77
2023-03-23T19:58:41.567Z,2.50
2023-03-23T20:01:08.762Z,4.20
2023-03-23T20:03:36.107Z,2.57
2023-03-23T20:06:05.669Z,3.03
2023-03-23T20:08:32.489Z,2.50
2023-03-23T20:11:19.432Z,2.57
2023-03-23T20:13:49.076Z,2.63
2023-03-23T20:16:16.708Z,3.27
2023-03-23T20:18:44.768Z,2.80
2023-03-23T20:21:14.690Z,2.20
2023-03-23T20:23:42.687Z,1.93
2023-03-23T20:26:25.652Z,3.03
2023-03-23T20:28:53.617Z,2.57
2023-03-23T20:31:24.468Z,2.23
2023-03-23T20:34:00.358Z,2.67
2023-03-23T20:36:36.443Z,2.70
2023-03-23T20:39:10.594Z,2.13
2023-03-23T20:41:38.635Z,2.70
2023-03-23T20:44:06.934Z,2.40
2023-03-23T20:46:33.786Z,2.37
2023-03-23T20:49:01.384Z,2.70
2023-03-23T20:51:27.927Z,2.50
2023-03-23T20:53:54.799Z,3.07
2023-03-23T20:56:22.749Z,2.47
2023-03-23T20:58:49.417Z,2.57
2023-03-23T21:01:16.394Z,2.23
2023-03-23T21:03:43.992Z,1.93
2023-03-23T21:06:10.837Z,3.03
2023-03-23T21:08:39.104Z,2.70
2023-03-23T21:11:07.754Z,3.00
2023-03-23T21:13:34.775Z,2.40
2023-03-23T21:16:02.299Z,2.00
2023-03-23T21:18:29.856Z,2.70
2023-03-23T21:20:57.222Z,2.70
2023-03-23T21:23:26.775Z,2.77
2023-03-23T21:25:54.879Z,3.13
2023-03-23T21:28:22.103Z,2.60
2023-03-23T21:30:49.397Z,2.37
2023-03-23T21:33:17.035Z,2.57
2023-03-23T21:35:48.760Z,2.10
2023-03-23T21:38:15.748Z,2.20
2023-03-23T21:40:42.909Z,3.43
2023-03-23T21:43:16.863Z,2.60
2023-03-23T21:45:44.815Z,2.53
2023-03-23T21:48:12.610Z,2.80
2023-03-23T21:50:43.685Z,2.67
2023-03-23T21:53:18.245Z,3.57
2023-03-23T21:55:51.694Z,2.87
2023-03-23T21:58:24.137Z,3.13
2023-03-23T22:00:54.066Z,2.43
2023-03-23T22:03:25.009Z,2.70
2023-03-23T22:05:54.870Z,2.67
2023-03-23T22:08:23.248Z,3.70
2023-03-23T22:11:01.376Z,2.27
2023-03-23T22:13:32.216Z,2.30
2023-03-23T22:15:59.501Z,3.03
2023-03-23T22:18:26.133Z,2.43
2023-03-23T22:20:53.391Z,3.20
2023-03-23T22:23:20.717Z,3.03
2023-03-23T22:25:47.518Z,2.80
2023-03-23T22:28:14.514Z,2.80
2023-03-23T22:30:41.111Z,2.63
2023-03-23T22:33:08.060Z,2.90
2023-03-23T22:35:34.814Z,2.20
2023-03-23T22:38:03.139Z,2.57
2023-03-23T22:40:30.911Z,3.77
2023-03-23T22:42:57.578Z,2.93
2023-03-23T22:45:26.000Z,2.87
2023-03-23T22:47:53.038Z,2.73
2023-03-23T22:50:21.488Z,2.33
2023-03-23T22:52:48.486Z,2.57
2023-03-23T22:55:15.526Z,2.37
2023-03-23T22:57:42.124Z,2.47
2023-03-23T23:00:14.394Z,2.60
2023-03-23T23:02:42.774Z,3.43
2023-03-23T23:05:10.907Z,2.70
2023-03-23T23:07:38.264Z,2.30
2023-03-23T23:10:05.722Z,2.80
2023-03-23T23:12:35.135Z,3.33
2023-03-23T23:15:04.516Z,2.03
2023-03-23T23:17:34.852Z,2.40
2023-03-23T23:20:05.416Z,3.00
2023-03-23T23:22:32.477Z,3.40
2023-03-23T23:24:59.130Z,3.17
2023-03-23T23:27:26.266Z,2.97
2023-03-23T23:29:53.070Z,2.50
2023-03-23T23:32:19.868Z,2.80
2023-03-23T23:34:46.799Z,2.80
2023-03-23T23:37:13.747Z,3.00
2023-03-23T23:39:41.397Z,3.17
2023-03-23T23:42:08.074Z,2.60
2023-03-23T23:44:35.056Z,3.00
2023-03-23T23:47:02.481Z,2.67
2023-03-23T23:49:29.165Z,2.33
2023-03-23T23:51:56.557Z,2.97
2023-03-23T23:54:23.362Z,2.53
2023-03-23T23:56:53.083Z,2.80
2023-03-23T23:59:19.733Z,2.90
